Time;durP1;ratioP1;P1;durP2;ratioP2;P2;SDS_P1;SDS_P2;PMS_P1;PMS_P2;Temp;Humidity;BMP_temperature;BMP_pressure;BME280_temperature;BME280_humidity;BME280_pressure;Samples;Min_cycle;Max_cycle;Signal;HPM_P1;HPM_P2
2022/03/06 00:00:07;;;;;;;3.63;3.20;;;3.70;68.90;;;;;;5074347;28;20032;-56
2022/03/06 00:02:33;;;;;;;3.13;2.53;;;3.70;68.60;;;;;;5074303;28;20107;-56
2022/03/06 00:04:59;;;;;;;3.83;3.40;;;3.70;68.70;;;;;;5074480;28;20400;-56
2022/03/06 00:07:24;;;;;;;3.53;3.22;;;3.70;68.90;;;;;;5073553;28;20111;-56
2022/03/06 00:09:50;;;;;;;3.47;2.33;;;3.70;68.10;;;;;;5071919;28;20046;-56
2022/03/06 00:12:16;;;;;;;3.50;3.20;;;3.70;68.20;;;;;;5074464;28;20028;-57
2022/03/06 00:14:41;;;;;;;3.03;2.40;;;3.70;68.20;;;;;;5073825;28;20029;-56
2022/03/06 00:17:07;;;;;;;2.38;2.17;;;3.70;68.00;;;;;;5071807;28;20035;-56
2022/03/06 00:19:33;;;;;;;3.00;2.67;;;3.60;68.30;;;;;;5074161;28;20480;-56
2022/03/06 00:21:59;;;;;;;2.60;2.40;;;3.70;68.20;;;;;;5074026;28;20021;-57
2022/03/06 00:24:25;;;;;;;3.38;3.03;;;3.70;68.10;;;;;;5079519;28;20023;-56
2022/03/06 00:26:51;;;;;;;3.13;2.60;;;3.70;67.90;;;;;;5060979;28;20540;-57
2022/03/06 00:29:17;;;;;;;3.65;2.85;;;3.70;67.90;;;;;;5074027;28;20063;-56
2022/03/06 00:31:42;;;;;;;3.58;3.28;;;3.70;68.20;;;;;;5073774;28;20047;-56
2022/03/06 00:34:08;;;;;;;4.68;3.35;;;3.70;68.10;;;;;;5073847;28;20016;-56
2022/03/06 00:36:34;;;;;;;3.28;2.30;;;3.80;67.90;;;;;;5073592;28;20020;-56
2022/03/06 00:38:59;;;;;;;3.28;2.38;;;3.70;67.90;;;;;;5073577;28;20052;-57
2022/03/06 00:41:25;;;;;;;2.55;2.15;;;3.70;68.20;;;;;;5073593;28;20720;-56
2022/03/06 00:43:51;;;;;;;3.33;2.92;;;3.70;68.40;;;;;;5064423;28;20028;-56
2022/03/06 00:46:17;;;;;;;3.08;2.65;;;3.70;68.40;;;;;;5072433;28;20032;-57
2022/03/06 00:48:42;;;;;;;3.72;3.40;;;3.70;68.50;;;;;;5073168;28;20021;-57
2022/03/06 00:51:08;;;;;;;2.85;2.47;;;3.80;68.30;;;;;;5073358;28;20384;-56
2022/03/06 00:53:34;;;;;;;4.22;3.10;;;3.70;68.10;;;;;;5073510;28;20495;-56
2022/03/06 00:55:59;;;;;;;3.53;2.70;;;3.80;68.20;;;;;;5073823;28;20021;-57
2022/03/06 00:58:25;;;;;;;2.60;2.28;;;3.80;68.00;;;;;;5073068;28;20035;-56
2022/03/06 01:00:51;;;;;;;3.33;2.95;;;3.70;68.00;;;;;;5060473;28;20039;-56
2022/03/06 01:03:19;;;;;;;3.63;3.22;;;3.80;67.90;;;;;;5073371;28;20024;-56
2022/03/06 01:05:46;;;;;;;3.05;2.83;;;3.80;67.30;;;;;;5073007;28;20025;-56
2022/03/06 01:08:12;;;;;;;2.83;2.53;;;3.80;67.00;;;;;;5073179;28;20024;-56
2022/03/06 01:10:39;;;;;;;4.15;3.20;;;3.80;67.20;;;;;;5072905;28;20023;-56
2022/03/06 01:13:07;;;;;;;4.07;3.30;;;3.90;67.00;;;;;;5072681;28;20494;-56
2022/03/06 01:15:33;;;;;;;4.07;3.20;;;3.90;66.50;;;;;;5069410;28;20036;-56
2022/03/06 01:17:59;;;;;;;3.42;2.80;;;3.90;66.60;;;;;;5062979;28;20032;-57
2022/03/06 01:20:25;;;;;;;3.83;3.35;;;3.90;67.50;;;;;;5072401;28;20020;-56
2022/03/06 01:22:52;;;;;;;3.35;2.60;;;3.90;67.10;;;;;;5059146;28;20056;-56
2022/03/06 01:25:18;;;;;;;4.18;3.30;;;3.90;67.20;;;;;;5067884;28;20025;-57
2022/03/06 01:27:44;;;;;;;4.28;3.65;;;3.90;67.50;;;;;;5052833;28;20385;-56
2022/03/06 01:30:12;;;;;;;4.03;3.53;;;3.90;67.50;;;;;;5063958;28;20033;-56
2022/03/06 01:32:38;;;;;;;3.95;3.55;;;3.90;67.40;;;;;;5072558;28;20760;-56
2022/03/06 01:35:05;;;;;;;4.05;2.92;;;3.90;67.40;;;;;;5068402;28;20108;-56
2022/03/06 01:37:31;;;;;;;4.20;3.72;;;3.90;67.50;;;;;;5072410;28;20074;-57
2022/03/06 01:39:57;;;;;;;4.65;3.28;;;3.90;67.60;;;;;;5072412;28;20082;-56
2022/03/06 01:42:23;;;;;;;5.25;4.30;;;3.90;67.70;;;;;;5072482;28;20070;-56
2022/03/06 01:44:50;;;;;;;5.18;4.00;;;3.90;67.60;;;;;;5072572;28;20396;-57
2022/03/06 01:47:36;;;;;;;4.00;2.90;;;3.90;67.50;;;;;;5072452;28;20029;-57
2022/03/06 01:50:06;;;;;;;3.80;2.72;;;3.90;67.50;;;;;;5072656;28;20538;-56
2022/03/06 01:52:32;;;;;;;4.03;3.13;;;3.80;67.70;;;;;;5072181;28;20075;-56
2022/03/06 01:54:58;;;;;;;3.45;3.10;;;3.80;67.90;;;;;;5072333;28;20423;-57
2022/03/06 01:57:24;;;;;;;4.30;3.78;;;3.80;68.00;;;;;;5072511;28;20024;-56
2022/03/06 01:59:49;;;;;;;3.92;3.00;;;3.90;67.80;;;;;;5072378;28;20020;-57
2022/03/06 02:02:15;;;;;;;3.38;2.65;;;3.80;67.70;;;;;;5072263;28;20242;-56
2022/03/06 02:04:41;;;;;;;4.10;3.70;;;3.80;67.90;;;;;;5072346;28;20039;-56
2022/03/06 02:07:07;;;;;;;3.85;3.00;;;3.80;67.90;;;;;;5071709;28;20028;-56
2022/03/06 02:09:33;;;;;;;3.92;3.47;;;3.80;67.90;;;;;;5059833;28;20024;-57
2022/03/06 02:14:43;;;;;;;3.80;2.63;;;3.80;67.70;;;;;;5072232;28;20104;-56
2022/03/06 02:17:09;;;;;;;4.30;3.90;;;3.70;67.90;;;;;;5072035;28;20119;-56
2022/03/06 02:19:53;;;;;;;4.05;3.65;;;3.70;68.00;;;;;;5072152;28;20082;-57
2022/03/06 02:22:20;;;;;;;3.78;3.03;;;3.80;67.90;;;;;;5072360;28;20048;-56
2022/03/06 02:24:46;;;;;;;3.30;3.00;;;3.70;68.00;;;;;;5070242;28;20025;-56
2022/03/06 02:27:12;;;;;;;3.60;3.30;;;3.70;68.20;;;;;;5069718;28;20111;-56
2022/03/06 02:29:41;;;;;;;3.75;2.90;;;3.70;68.20;;;;;;5072783;28;20025;-57
2022/03/06 02:32:13;;;;;;;4.03;3.60;;;3.70;68.20;;;;;;5075890;28;20032;-57
2022/03/06 02:34:42;;;;;;;4.68;3.78;;;3.70;68.10;;;;;;5075491;28;20021;-57
2022/03/06 02:37:08;;;;;;;4.05;3.65;;;3.70;68.10;;;;;;5075682;28;20077;-56
2022/03/06 02:39:34;;;;;;;3.75;2.83;;;3.70;67.80;;;;;;5075635;28;20044;-57
2022/03/06 02:42:01;;;;;;;4.85;4.03;;;3.70;67.80;;;;;;5068432;28;20029;-57
2022/03/06 02:44:28;;;;;;;3.78;2.97;;;3.70;68.00;;;;;;5073233;28;20028;-57
2022/03/06 02:46:53;;;;;;;3.08;2.70;;;3.70;67.90;;;;;;5075695;28;20024;-56
2022/03/06 02:49:19;;;;;;;3.15;2.60;;;3.60;68.10;;;;;;5075575;28;20295;-56
2022/03/06 02:51:46;;;;;;;4.40;3.70;;;3.60;68.30;;;;;;5075682;28;20047;-57
2022/03/06 02:54:20;;;;;;;4.68;3.15;;;3.60;68.20;;;;;;5075831;28;20028;-56
2022/03/06 02:56:47;;;;;;;3.03;2.70;;;3.60;68.30;;;;;;5075622;28;20024;-57
2022/03/06 02:59:13;;;;;;;3.75;3.35;;;3.60;68.60;;;;;;5070201;28;20040;-57
2022/03/06 03:01:41;;;;;;;3.72;2.90;;;3.60;68.50;;;;;;5075444;28;20036;-57
2022/03/06 03:04:11;;;;;;;3.20;2.65;;;3.60;68.50;;;;;;5075595;28;20056;-56
2022/03/06 03:06:38;;;;;;;4.25;3.67;;;3.50;68.60;;;;;;5075403;28;20052;-56
2022/03/06 03:09:07;;;;;;;4.00;3.10;;;3.60;68.80;;;;;;5075511;28;20050;-56
2022/03/06 03:11:34;;;;;;;3.70;2.80;;;3.50;68.90;;;;;;5075457;28;20063;-57
2022/03/06 03:14:01;;;;;;;4.25;3.63;;;3.50;68.70;;;;;;5075251;28;20027;-56
2022/03/06 03:16:27;;;;;;;4.22;3.53;;;3.50;68.50;;;;;;5074714;28;20051;-56
2022/03/06 03:18:53;;;;;;;3.80;2.70;;;3.60;68.20;;;;;;5075026;28;20028;-56
2022/03/06 03:21:19;;;;;;;3.00;2.70;;;3.50;68.00;;;;;;5075315;28;20424;-56
2022/03/06 03:23:45;;;;;;;3.45;3.03;;;3.50;68.60;;;;;;5075044;28;20110;-56
2022/03/06 03:26:11;;;;;;;3.78;2.80;;;3.50;68.10;;;;;;5075030;28;20115;-57
2022/03/06 03:28:37;;;;;;;3.05;2.50;;;3.50;67.80;;;;;;5074960;28;20025;-56
2022/03/06 03:31:03;;;;;;;5.13;3.50;;;3.50;68.20;;;;;;5075010;28;20027;-55
2022/03/06 03:33:29;;;;;;;4.22;2.80;;;3.50;68.10;;;;;;5069006;28;20024;-56
2022/03/06 03:35:56;;;;;;;3.83;3.38;;;3.50;68.10;;;;;;5075158;28;20036;-56
2022/03/06 03:38:22;;;;;;;3.72;3.42;;;3.50;68.30;;;;;;5074762;28;20257;-56
2022/03/06 03:40:47;;;;;;;4.40;2.80;;;3.60;68.30;;;;;;5074110;28;20028;-56
2022/03/06 03:43:13;;;;;;;4.65;4.03;;;3.50;68.40;;;;;;5073717;28;20349;-55
2022/03/06 03:45:39;;;;;;;3.83;3.42;;;3.60;68.50;;;;;;5074636;28;20491;-56
2022/03/06 03:48:05;;;;;;;2.90;2.60;;;3.60;68.50;;;;;;5074610;28;20051;-56
2022/03/06 03:50:30;;;;;;;4.05;3.60;;;3.50;68.40;;;;;;5073017;28;20597;-56
2022/03/06 03:52:56;;;;;;;4.10;3.65;;;3.50;68.70;;;;;;5074459;28;20041;-56
2022/03/06 03:55:22;;;;;;;3.50;2.50;;;3.60;68.50;;;;;;5074202;28;20028;-56
2022/03/06 03:57:48;;;;;;;3.00;2.80;;;3.50;68.50;;;;;;5073772;28;20024;-56
2022/03/06 04:00:14;;;;;;;3.35;2.63;;;3.50;68.60;;;;;;5074307;28;20074;-56
2022/03/06 04:02:39;;;;;;;3.20;2.90;;;3.50;69.00;;;;;;5074314;28;20032;-56
2022/03/06 04:05:06;;;;;;;3.13;2.45;;;3.50;68.80;;;;;;5074307;28;20601;-56
2022/03/06 04:07:31;;;;;;;3.58;3.25;;;3.50;68.50;;;;;;5069336;28;20090;-56
2022/03/06 04:09:57;;;;;;;3.03;2.50;;;3.50;68.40;;;;;;5074146;28;20032;-56
2022/03/06 04:12:23;;;;;;;3.53;3.22;;;3.50;68.40;;;;;;5074126;28;20060;-56
2022/03/06 04:14:49;;;;;;;3.55;2.38;;;3.50;68.50;;;;;;5074148;28;20357;-56
2022/03/06 04:17:14;;;;;;;3.83;3.25;;;3.50;68.50;;;;;;5073880;28;20411;-56
2022/03/06 04:19:40;;;;;;;5.35;3.60;;;3.50;68.40;;;;;;5074286;28;20158;-56
2022/03/06 04:22:06;;;;;;;4.50;3.88;;;3.60;68.30;;;;;;5073848;28;20021;-57
2022/03/06 04:24:32;;;;;;;2.75;2.53;;;3.60;68.20;;;;;;5073749;28;20032;-56
2022/03/06 04:26:57;;;;;;;3.38;2.67;;;3.60;68.20;;;;;;5073817;28;20020;-56
2022/03/06 04:29:23;;;;;;;2.42;2.20;;;3.50;68.50;;;;;;5074152;28;20036;-57
2022/03/06 04:31:49;;;;;;;3.10;2.45;;;3.50;68.60;;;;;;5073629;28;20040;-56
2022/03/06 04:34:16;;;;;;;3.63;3.28;;;3.50;68.70;;;;;;5073858;28;20499;-57
2022/03/06 04:36:42;;;;;;;4.25;3.40;;;3.50;68.70;;;;;;5073686;28;20512;-56
2022/03/06 04:39:08;;;;;;;4.03;3.50;;;3.60;68.60;;;;;;5073425;28;20123;-56
2022/03/06 04:41:34;;;;;;;3.90;2.60;;;3.60;68.40;;;;;;5070881;28;20380;-56
2022/03/06 04:44:00;;;;;;;3.53;2.60;;;3.60;68.30;;;;;;5073478;28;20542;-56
2022/03/06 04:46:25;;;;;;;3.58;3.17;;;3.60;68.40;;;;;;5073314;28;20048;-56
2022/03/06 04:48:51;;;;;;;4.05;3.47;;;3.60;68.30;;;;;;5073203;28;20024;-56
2022/03/06 04:51:17;;;;;;;2.50;2.30;;;3.60;68.20;;;;;;5073622;28;20086;-56
2022/03/06 04:53:43;;;;;;;3.22;2.92;;;3.60;68.30;;;;;;5072885;28;20090;-56
2022/03/06 04:56:09;;;;;;;4.00;3.10;;;3.60;68.10;;;;;;5072694;28;20074;-56
2022/03/06 04:58:36;;;;;;;3.30;3.00;;;3.70;67.80;;;;;;5063662;28;20472;-57
2022/03/06 05:01:02;;;;;;;2.72;2.35;;;3.70;67.60;;;;;;5073094;28;20074;-56
2022/03/06 05:03:29;;;;;;;3.30;3.00;;;3.60;67.60;;;;;;5073236;28;20013;-56
2022/03/06 05:05:54;;;;;;;3.20;2.50;;;3.70;67.80;;;;;;5073269;28;20473;-57
2022/03/06 05:08:20;;;;;;;4.05;3.13;;;3.60;67.50;;;;;;5073034;28;20035;-57
2022/03/06 05:10:46;;;;;;;3.70;2.67;;;3.70;67.70;;;;;;5072770;28;20365;-56
2022/03/06 05:13:12;;;;;;;2.50;2.30;;;3.60;67.70;;;;;;5073194;28;20436;-56
2022/03/06 05:15:38;;;;;;;2.58;2.38;;;3.60;68.00;;;;;;5061287;28;20109;-57
2022/03/06 05:18:04;;;;;;;2.95;2.70;;;3.60;68.10;;;;;;5072820;28;20060;-56
2022/03/06 05:20:30;;;;;;;4.20;3.67;;;3.60;68.30;;;;;;5072733;28;20024;-56
2022/03/06 05:22:56;;;;;;;3.00;2.70;;;3.70;68.50;;;;;;5072692;28;20033;-57
2022/03/06 05:25:22;;;;;;;3.38;2.88;;;3.70;68.40;;;;;;5073074;28;20491;-57
2022/03/06 05:27:48;;;;;;;3.65;3.35;;;3.70;68.60;;;;;;5073005;28;20024;-57
2022/03/06 05:30:14;;;;;;;4.10;2.78;;;3.70;68.60;;;;;;5072753;28;20040;-56
2022/03/06 05:32:40;;;;;;;3.47;3.17;;;3.70;68.40;;;;;;5066223;28;20013;-56
2022/03/06 05:35:07;;;;;;;3.92;3.40;;;3.80;68.40;;;;;;5072688;28;20496;-57
2022/03/06 05:37:33;;;;;;;3.15;2.35;;;3.80;68.20;;;;;;5072387;28;20608;-56
2022/03/06 05:39:59;;;;;;;3.65;2.40;;;3.80;68.20;;;;;;5072439;28;20115;-57
2022/03/06 05:42:24;;;;;;;3.58;3.28;;;3.80;68.30;;;;;;5072479;28;20020;-57
2022/03/06 05:44:51;;;;;;;3.40;3.10;;;3.90;67.90;;;;;;5072586;28;20070;-57
2022/03/06 05:47:16;;;;;;;3.45;3.00;;;3.90;67.30;;;;;;5072403;28;20028;-56
2022/03/06 05:49:42;;;;;;;3.40;2.95;;;3.90;67.00;;;;;;5071016;28;20020;-56
2022/03/06 05:52:08;;;;;;;3.10;2.40;;;3.90;66.80;;;;;;5072005;28;20408;-56
2022/03/06 05:54:34;;;;;;;2.85;2.65;;;3.90;67.00;;;;;;5072038;28;20111;-57
2022/03/06 05:57:00;;;;;;;3.40;3.10;;;4.00;66.90;;;;;;5072152;28;20595;-57
2022/03/06 05:59:25;;;;;;;2.85;2.40;;;4.00;66.70;;;;;;5072274;28;20133;-56
2022/03/06 06:01:51;;;;;;;3.33;2.38;;;4.10;66.70;;;;;;5072284;28;20111;-57
2022/03/06 06:04:18;;;;;;;3.20;2.90;;;4.10;67.10;;;;;;5073158;28;20524;-56
2022/03/06 06:06:44;;;;;;;3.78;3.38;;;4.10;67.10;;;;;;5067519;28;20040;-57
2022/03/06 06:09:10;;;;;;;3.78;3.15;;;4.20;67.00;;;;;;5079240;28;20029;-56
2022/03/06 06:11:36;;;;;;;3.55;3.00;;;4.20;66.80;;;;;;5078848;28;20115;-55
2022/03/06 06:14:02;;;;;;;2.97;2.38;;;4.30;66.50;;;;;;5078951;28;20495;-55
2022/03/06 06:16:28;;;;;;;2.40;2.20;;;4.20;66.50;;;;;;5078729;28;20032;-56
2022/03/06 06:18:54;;;;;;;3.50;3.20;;;4.20;66.80;;;;;;5079103;28;20051;-57
2022/03/06 06:21:20;;;;;;;2.83;2.60;;;4.30;67.00;;;;;;5078726;28;20108;-56
2022/03/06 06:23:46;;;;;;;5.13;2.80;;;4.30;67.00;;;;;;5072013;28;20313;-57
2022/03/06 06:26:12;;;;;;;3.85;3.10;;;4.30;67.00;;;;;;5078738;28;20047;-56
2022/03/06 06:28:38;;;;;;;3.30;2.78;;;4.40;67.20;;;;;;5060765;28;20027;-56
2022/03/06 06:31:05;;;;;;;3.42;3.13;;;4.30;67.10;;;;;;5078638;28;20111;-56
2022/03/06 06:33:32;;;;;;;4.00;3.42;;;4.40;67.30;;;;;;5078919;28;20032;-56
2022/03/06 06:35:57;;;;;;;3.97;3.00;;;4.50;67.10;;;;;;5078709;28;20032;-56
2022/03/06 06:38:24;;;;;;;2.72;2.53;;;4.50;67.00;;;;;;5078445;28;20090;-57
2022/03/06 06:40:51;;;;;;;3.55;3.13;;;4.50;66.70;;;;;;5075167;28;20059;-57
2022/03/06 06:43:18;;;;;;;3.17;2.88;;;4.50;66.60;;;;;;5078760;28;20071;-57
2022/03/06 06:45:44;;;;;;;3.95;3.20;;;4.60;66.40;;;;;;5078658;28;20103;-55
2022/03/06 06:48:10;;;;;;;4.57;3.20;;;4.60;66.50;;;;;;5078432;28;20120;-56
2022/03/06 06:50:35;;;;;;;3.40;3.10;;;4.70;66.10;;;;;;5078775;28;20032;-56
2022/03/06 06:53:01;;;;;;;3.90;2.53;;;4.70;65.70;;;;;;5078080;28;20052;-56
2022/03/06 06:55:27;;;;;;;3.50;3.20;;;4.70;66.00;;;;;;5078333;28;20024;-56
2022/03/06 06:57:53;;;;;;;4.07;2.60;;;4.70;65.90;;;;;;5077692;28;20024;-56
2022/03/06 07:00:19;;;;;;;3.25;2.95;;;4.70;65.70;;;;;;5078433;28;20048;-57
2022/03/06 07:02:46;;;;;;;3.35;3.05;;;4.80;66.40;;;;;;5078440;28;20029;-56
2022/03/06 07:05:12;;;;;;;3.38;3.08;;;4.80;65.50;;;;;;5078494;28;20056;-57
2022/03/06 07:07:38;;;;;;;4.47;3.42;;;4.90;65.10;;;;;;5078407;28;20024;-56
2022/03/06 07:10:04;;;;;;;4.97;3.45;;;4.90;65.10;;;;;;5078362;28;20024;-56
2022/03/06 07:12:30;;;;;;;3.03;2.72;;;4.90;64.80;;;;;;5078586;28;20032;-56
2022/03/06 07:14:56;;;;;;;3.72;3.30;;;5.00;64.70;;;;;;5070796;28;20029;-56
2022/03/06 07:17:22;;;;;;;3.60;2.22;;;5.10;64.80;;;;;;5075780;28;20114;-56
2022/03/06 07:19:48;;;;;;;3.40;2.83;;;5.00;64.70;;;;;;5057153;28;20389;-57
2022/03/06 07:22:15;;;;;;;3.28;2.95;;;5.10;64.80;;;;;;5075064;28;20048;-56
2022/03/06 07:24:41;;;;;;;3.70;3.10;;;5.10;64.40;;;;;;5075277;28;20094;-56
2022/03/06 07:27:07;;;;;;;2.80;2.38;;;5.20;64.30;;;;;;5074960;28;20024;-56
2022/03/06 07:29:32;;;;;;;3.03;2.80;;;5.20;64.60;;;;;;5074985;28;20028;-56
2022/03/06 07:31:58;;;;;;;3.72;3.30;;;5.30;64.50;;;;;;5072598;28;20027;-57
2022/03/06 07:34:24;;;;;;;2.75;2.40;;;5.30;64.20;;;;;;5075113;28;20043;-56
2022/03/06 07:36:49;;;;;;;3.25;2.42;;;5.30;64.20;;;;;;5074664;28;20021;-57
2022/03/06 07:39:15;;;;;;;3.45;2.63;;;5.30;64.40;;;;;;5074629;28;20412;-57
2022/03/06 07:41:41;;;;;;;3.95;3.10;;;5.40;64.50;;;;;;5074722;28;20048;-57
2022/03/06 07:44:07;;;;;;;2.92;2.40;;;5.50;64.40;;;;;;5074695;28;20016;-57
2022/03/06 07:46:33;;;;;;;2.67;2.42;;;5.50;64.40;;;;;;5074605;28;20484;-57
2022/03/06 07:48:58;;;;;;;2.65;2.42;;;5.50;64.40;;;;;;5069478;28;20021;-56
2022/03/06 07:51:24;;;;;;;3.40;2.70;;;5.50;64.30;;;;;;5074735;28;20532;-57
2022/03/06 07:53:50;;;;;;;2.60;2.38;;;5.50;64.10;;;;;;5074489;28;20131;-56
2022/03/06 07:56:16;;;;;;;2.65;2.42;;;5.50;64.20;;;;;;5074397;28;20032;-56
2022/03/06 07:58:41;;;;;;;2.63;2.42;;;5.60;64.40;;;;;;5074357;28;20531;-57
2022/03/06 08:01:07;;;;;;;2.78;2.53;;;5.60;64.50;;;;;;5074303;28;20063;-56
2022/03/06 08:03:33;;;;;;;2.83;2.25;;;5.60;64.60;;;;;;5074168;28;20017;-57
2022/03/06 08:05:59;;;;;;;2.50;2.30;;;5.60;64.60;;;;;;5061437;28;20029;-57
2022/03/06 08:08:24;;;;;;;2.63;2.35;;;5.60;64.50;;;;;;5074258;28;20103;-57
2022/03/06 08:10:50;;;;;;;2.42;2.22;;;5.60;64.50;;;;;;5074163;28;20384;-57
2022/03/06 08:13:16;;;;;;;4.88;3.00;;;5.60;64.50;;;;;;5074073;28;20033;-57
2022/03/06 08:15:42;;;;;;;4.15;2.42;;;5.70;64.60;;;;;;5073975;28;20442;-56
2022/03/06 08:18:08;;;;;;;3.00;2.70;;;5.70;64.50;;;;;;5074173;28;20064;-56
2022/03/06 08:20:33;;;;;;;2.97;2.28;;;5.70;64.40;;;;;;5073981;28;20021;-57
2022/03/06 08:23:01;;;;;;;3.38;2.60;;;5.70;64.40;;;;;;5065024;28;20031;-57
2022/03/06 08:25:26;;;;;;;2.83;2.50;;;5.70;64.30;;;;;;5073751;28;20078;-57
2022/03/06 08:27:52;;;;;;;3.60;2.42;;;5.70;64.20;;;;;;5073345;28;20024;-56
2022/03/06 08:30:18;;;;;;;2.60;2.40;;;5.70;63.90;;;;;;5073525;28;20028;-56
2022/03/06 08:32:44;;;;;;;2.70;2.45;;;5.60;64.00;;;;;;5079322;28;20387;-56
2022/03/06 08:35:10;;;;;;;3.75;2.80;;;5.60;63.90;;;;;;5054018;28;20040;-57
2022/03/06 08:37:36;;;;;;;2.60;2.40;;;5.60;64.00;;;;;;5053745;28;20033;-56
2022/03/06 08:40:04;;;;;;;2.80;2.50;;;5.50;64.00;;;;;;5061803;28;20119;-57
2022/03/06 08:42:29;;;;;;;2.75;2.55;;;5.50;64.00;;;;;;5073567;28;20013;-56
2022/03/06 08:44:55;;;;;;;3.35;3.03;;;5.40;64.00;;;;;;5073755;28;20502;-57
2022/03/06 08:47:21;;;;;;;3.05;2.72;;;5.40;63.80;;;;;;5073406;28;20027;-56
2022/03/06 08:49:47;;;;;;;5.15;2.90;;;5.40;63.80;;;;;;5073459;28;20020;-59
2022/03/06 08:52:12;;;;;;;4.07;2.85;;;5.40;63.80;;;;;;5073391;28;20020;-57
2022/03/06 08:54:38;;;;;;;2.80;2.50;;;5.30;63.80;;;;;;5073240;28;20033;-57
2022/03/06 08:57:04;;;;;;;4.05;2.97;;;5.30;63.90;;;;;;5069776;28;20104;-57
2022/03/06 08:59:30;;;;;;;3.10;2.65;;;5.30;64.00;;;;;;5073147;28;20067;-56
2022/03/06 09:01:56;;;;;;;3.15;2.45;;;5.30;63.60;;;;;;5073129;28;20064;-57
2022/03/06 09:04:24;;;;;;;3.03;2.72;;;5.20;63.60;;;;;;5073354;28;20048;-57
2022/03/06 09:06:51;;;;;;;3.03;2.42;;;5.20;63.80;;;;;;5073113;28;20024;-57
2022/03/06 09:09:17;;;;;;;3.92;2.95;;;5.30;64.00;;;;;;5072468;28;20040;-57
2022/03/06 09:11:45;;;;;;;4.43;2.65;;;5.30;64.10;;;;;;5073051;28;20028;-57
2022/03/06 09:14:11;;;;;;;3.63;2.67;;;5.40;64.00;;;;;;5071032;28;20029;-57
2022/03/06 09:16:37;;;;;;;3.33;2.45;;;5.50;64.00;;;;;;5072931;28;20035;-57
2022/03/06 09:19:03;;;;;;;3.22;2.67;;;5.60;63.80;;;;;;5072642;28;20025;-57
2022/03/06 09:21:29;;;;;;;4.22;2.50;;;5.70;63.80;;;;;;5072921;28;20017;-57
2022/03/06 09:23:55;;;;;;;4.07;2.78;;;5.70;63.40;;;;;;5072719;28;20028;-57
2022/03/06 09:26:21;;;;;;;3.22;2.55;;;5.80;63.30;;;;;;5054802;28;20476;-57
2022/03/06 09:28:47;;;;;;;5.78;3.10;;;5.90;63.10;;;;;;5072533;28;20052;-57
2022/03/06 09:31:13;;;;;;;3.00;2.70;;;5.90;62.90;;;;;;5071749;28;20028;-57
2022/03/06 09:33:38;;;;;;;3.70;2.60;;;6.00;63.10;;;;;;5072668;28;20031;-57
2022/03/06 09:36:04;;;;;;;2.88;2.58;;;6.00;62.80;;;;;;5072850;28;20021;-57
2022/03/06 09:38:30;;;;;;;3.70;2.90;;;6.00;62.80;;;;;;5072312;28;20098;-57
2022/03/06 09:41:03;;;;;;;3.33;2.78;;;6.10;62.50;;;;;;5071779;28;20430;-57
2022/03/06 09:43:30;;;;;;;3.00;2.60;;;6.20;62.40;;;;;;5072820;28;20032;-57
2022/03/06 09:46:05;;;;;;;3.10;2.45;;;6.20;62.20;;;;;;5072817;28;20042;-57
2022/03/06 09:48:30;;;;;;;3.10;2.47;;;6.30;62.20;;;;;;5072202;28;20034;-59
2022/03/06 09:50:57;;;;;;;4.85;2.88;;;6.30;62.20;;;;;;5072778;28;20028;-59
2022/03/06 09:53:23;;;;;;;3.28;2.90;;;6.30;61.90;;;;;;5072483;28;20070;-57
2022/03/06 09:55:49;;;;;;;3.65;2.55;;;6.40;61.20;;;;;;5072382;28;20024;-57
2022/03/06 09:58:17;;;;;;;4.82;2.72;;;6.40;60.80;;;;;;5072268;28;20031;-57
2022/03/06 10:00:43;;;;;;;3.33;2.42;;;6.40;60.60;;;;;;5052593;28;20035;-57
2022/03/06 10:03:32;;;;;;;3.08;2.50;;;6.40;60.70;;;;;;5070964;28;20547;-59
2022/03/06 10:06:03;;;;;;;2.72;2.30;;;6.50;60.90;;;;;;5066647;28;20063;-56
2022/03/06 10:08:29;;;;;;;3.67;3.10;;;6.40;61.00;;;;;;5072423;28;20021;-57
2022/03/06 10:11:02;;;;;;;3.38;2.83;;;6.50;60.80;;;;;;5069756;28;20040;-57
2022/03/06 10:13:31;;;;;;;3.53;2.90;;;6.40;60.70;;;;;;5072314;28;20392;-57
2022/03/06 10:16:23;;;;;;;3.30;2.70;;;6.40;60.50;;;;;;5072423;28;20393;-56
2022/03/06 10:18:54;;;;;;;2.70;2.45;;;6.40;60.20;;;;;;5068315;28;20075;-57
2022/03/06 10:21:27;;;;;;;3.25;2.65;;;6.40;60.30;;;;;;5061491;28;20108;-55
2022/03/06 10:23:58;;;;;;;4.10;2.75;;;6.30;60.40;;;;;;5059128;28;20464;-56
2022/03/06 10:26:29;;;;;;;2.60;2.30;;;6.30;60.50;;;;;;5072379;28;20017;-56
2022/03/06 10:28:56;;;;;;;3.17;2.70;;;6.30;60.50;;;;;;5071746;28;20165;-57
2022/03/06 10:31:24;;;;;;;3.35;2.55;;;6.30;60.50;;;;;;5069587;28;20022;-58
2022/03/06 10:34:06;;;;;;;2.70;2.40;;;6.30;60.50;;;;;;5058528;28;20056;-57
2022/03/06 10:36:45;;;;;;;;;;;6.30;60.50;;;;;;5052685;28;20103;-56
2022/03/06 10:39:12;;;;;;;3.25;2.85;;;6.30;60.40;;;;;;5055776;28;19924;-56
2022/03/06 10:41:41;;;;;;;2.67;2.45;;;6.40;60.20;;;;;;5050680;28;20033;-56
2022/03/06 10:44:09;;;;;;;2.72;2.50;;;6.40;60.20;;;;;;5050860;28;20025;-56
2022/03/06 10:46:36;;;;;;;3.03;2.60;;;6.40;60.20;;;;;;5048885;28;20100;-56
2022/03/06 10:49:11;;;;;;;2.40;2.20;;;6.50;60.00;;;;;;5051243;28;20025;-56
2022/03/06 10:51:38;;;;;;;2.72;2.28;;;6.50;59.70;;;;;;5052844;28;20447;-56
2022/03/06 10:54:04;;;;;;;3.65;3.05;;;6.60;59.70;;;;;;5053797;28;20025;-56
2022/03/06 10:56:30;;;;;;;3.33;2.80;;;6.60;59.40;;;;;;5053149;28;20025;-56
2022/03/06 10:58:57;;;;;;;3.28;2.97;;;6.70;59.30;;;;;;5055417;28;20392;-58
2022/03/06 11:01:23;;;;;;;3.28;2.35;;;6.70;59.00;;;;;;5052410;28;20021;-56
2022/03/06 11:03:51;;;;;;;3.33;2.38;;;6.70;59.20;;;;;;5052201;28;20469;-56
2022/03/06 11:06:19;;;;;;;3.55;2.67;;;6.70;58.80;;;;;;5045355;28;20456;-56
2022/03/06 11:08:45;;;;;;;2.55;2.35;;;6.60;58.70;;;;;;5054906;28;20029;-57
2022/03/06 11:11:12;;;;;;;2.90;2.50;;;6.60;58.80;;;;;;5054513;28;20036;-56
2022/03/06 11:13:39;;;;;;;3.38;2.78;;;6.50;59.00;;;;;;5053018;28;20033;-57
2022/03/06 11:16:05;;;;;;;2.65;2.30;;;6.50;59.00;;;;;;5050642;28;20044;-57
2022/03/06 11:18:32;;;;;;;3.70;2.75;;;6.40;59.20;;;;;;5050535;28;20075;-56
2022/03/06 11:21:00;;;;;;;8.20;4.68;;;6.30;59.80;;;;;;5055108;28;20030;-57
2022/03/06 11:23:41;;;;;;;3.53;3.15;;;6.20;59.70;;;;;;5055002;28;20059;-56
2022/03/06 11:26:10;;;;;;;3.53;2.80;;;6.20;58.90;;;;;;5055392;28;20052;-56
2022/03/06 11:29:09;;;;;;;2.63;2.42;;;6.20;58.90;;;;;;5055139;28;20163;-57
2022/03/06 11:31:50;;;;;;;2.60;2.28;;;6.20;58.60;;;;;;5021566;28;20045;-56
2022/03/06 11:34:25;;;;;;;2.50;2.28;;;6.20;58.60;;;;;;5054907;28;20428;-56
2022/03/06 11:36:51;;;;;;;2.90;2.63;;;6.20;58.50;;;;;;5055076;28;20452;-57
2022/03/06 11:39:29;;;;;;;3.05;2.20;;;6.20;58.40;;;;;;5066354;28;20405;-57
2022/03/06 11:41:59;;;;;;;2.92;2.08;;;6.30;58.20;;;;;;5074954;28;20020;-57
2022/03/06 11:44:35;;;;;;;2.95;2.20;;;6.30;58.40;;;;;;5075307;28;20480;-57
2022/03/06 11:47:37;;;;;;;2.20;2.00;;;6.30;57.80;;;;;;5068786;28;20044;-57
2022/03/06 11:50:03;;;;;;;1.90;1.80;;;6.40;57.70;;;;;;5074774;28;20013;-57
2022/03/06 11:52:31;;;;;;;2.05;1.95;;;6.40;57.90;;;;;;5072350;28;20029;-57
2022/03/06 11:54:59;;;;;;;2.35;2.13;;;6.40;57.70;;;;;;5072661;28;20052;-57
2022/03/06 11:57:44;;;;;;;3.58;2.30;;;6.40;57.60;;;;;;5058450;28;20029;-57
2022/03/06 12:00:21;;;;;;;3.47;2.47;;;6.40;57.50;;;;;;5067410;28;20096;-57
2022/03/06 12:02:55;;;;;;;2.58;2.30;;;6.40;57.40;;;;;;5068053;28;20104;-56
2022/03/06 12:05:42;;;;;;;2.40;2.20;;;6.30;57.10;;;;;;5069669;28;20040;-57
2022/03/06 12:08:11;;;;;;;2.42;2.22;;;6.30;57.30;;;;;;5074228;28;20025;-56
2022/03/06 12:10:39;;;;;;;3.47;2.22;;;6.30;57.60;;;;;;5056705;28;20457;-57
2022/03/06 12:13:17;;;;;;;2.30;1.90;;;6.20;57.30;;;;;;5053778;28;20044;-57
2022/03/06 12:16:07;;;;;;;1.98;1.77;;;6.20;56.60;;;;;;5054034;28;20040;-57
2022/03/06 12:18:34;;;;;;;1.92;1.83;;;6.00;56.50;;;;;;5054235;28;20029;-57
2022/03/06 12:21:00;;;;;;;2.92;2.20;;;5.90;56.40;;;;;;5063076;28;20055;-57
2022/03/06 12:23:28;;;;;;;2.13;1.98;;;5.90;56.30;;;;;;5073779;28;20033;-57
2022/03/06 12:26:00;;;;;;;1.58;1.58;;;5.80;55.80;;;;;;5070185;28;20051;-57
2022/03/06 12:28:38;;;;;;;1.77;1.67;;;5.70;55.80;;;;;;5073686;28;20455;-57
2022/03/06 12:31:31;;;;;;;1.80;1.70;;;5.70;56.00;;;;;;5073901;28;20074;-57
2022/03/06 12:34:00;;;;;;;1.90;1.63;;;5.60;56.00;;;;;;5073724;28;20067;-58
2022/03/06 12:36:26;;;;;;;1.73;1.63;;;5.60;56.10;;;;;;5071021;28;20025;-59
2022/03/06 12:38:55;;;;;;;1.70;1.60;;;5.60;55.90;;;;;;5074432;28;20041;-58
2022/03/06 12:41:21;;;;;;;1.70;1.60;;;5.60;55.30;;;;;;5073814;28;20530;-58
2022/03/06 12:44:05;;;;;;;1.58;1.48;;;5.60;55.50;;;;;;5073704;28;20067;-58
2022/03/06 12:46:32;;;;;;;1.90;1.80;;;5.60;55.20;;;;;;5073870;28;20031;-58
2022/03/06 12:48:58;;;;;;;1.88;1.77;;;5.60;55.10;;;;;;5073424;28;20024;-58
2022/03/06 12:51:29;;;;;;;2.85;1.85;;;5.60;54.80;;;;;;5073549;28;20484;-58
2022/03/06 12:53:55;;;;;;;1.80;1.70;;;5.70;54.90;;;;;;5066378;28;20033;-58
2022/03/06 12:56:38;;;;;;;1.80;1.70;;;5.70;54.80;;;;;;5069546;28;20460;-58
2022/03/06 12:59:17;;;;;;;1.85;1.75;;;5.80;55.00;;;;;;5064008;28;20028;-58
2022/03/06 13:01:45;;;;;;;2.15;1.98;;;5.90;55.10;;;;;;5053194;28;20131;-56